KSBA/SBA METAR and TAF weather

Enter ICAO airport designator
Station Type Date Time Source
KSBA METAR 2019/12/07 14:53 UTC NOAA

KSBA 071453Z AUTO 06005KT 6SM BR SCT006 BKN016 OVC028 14/14 A3011 RMK AO2 RAE1357 SLP196 P0001 60002 T01440139 51005


Station Type Date Time Source
KSBA Decoded METAR 2019/12/07 14:53 UTC NOAA

SANTA BARBARA MUNICIPAL, CA, United States (KSBA) 34-26N 119-51W 3M
Dec 07, 2019 - 09:53 AM EST / 2019.12.07 1453 UTC
Wind: from the ENE (060 degrees) at 6 MPH (5 KT):0
Visibility: 6 mile(s):0
Sky conditions: overcast
Weather: mist
Precipitation last hour: 0.01 inches
Temperature: 57.9 F (14.4 C)
Dew Point: 57.0 F (13.9 C)
Relative Humidity: 96%
Pressure (altimeter): 30.11 in. Hg (1019 hPa)
Pressure tendency: 0.01 inches (0.5 hPa) higher than three hours ago
ob: KSBA 071453Z AUTO 06005KT 6SM BR SCT006 BKN016 OVC028 14/14 A3011 RMK AO2 RAE1357 SLP196 P0001 60002 T01440139 51005
cycle: 15

Station Type Date Time Source
KSBA TAF 2019/12/07 12:48 UTC NOAA

TAF KSBA 071146Z 0712/0812 10008KT P6SM FEW008 BKN015
FM072300 14005KT 3SM -RA BR BKN008 OVC015
FM080400 10006KT 4SM -RA BKN015 OVC025
FM081000 VRB03KT 6SM -RA BR OVC025

Example: see airport list